sensor_id;sensor_type;location;lat;lon;timestamp;P1;durP1;ratioP1;P2;durP2;ratioP2
49223;SDS011;35050;51.316;5.994;2024-01-16T00:00:33;11.07;;;5.18;;
49223;SDS011;35050;51.316;5.994;2024-01-16T00:02:59;9.85;;;5.45;;
49223;SDS011;35050;51.316;5.994;2024-01-16T00:05:24;12.45;;;6.00;;
49223;SDS011;35050;51.316;5.994;2024-01-16T00:07:50;10.88;;;6.13;;
49223;SDS011;35050;51.316;5.994;2024-01-16T00:10:15;10.20;;;7.18;;
49223;SDS011;35050;51.316;5.994;2024-01-16T00:12:41;14.82;;;8.45;;
49223;SDS011;35050;51.316;5.994;2024-01-16T00:15:07;10.32;;;7.43;;
49223;SDS011;35050;51.316;5.994;2024-01-16T00:17:34;13.68;;;7.90;;
49223;SDS011;35050;51.316;5.994;2024-01-16T00:20:00;13.13;;;7.50;;
49223;SDS011;35050;51.316;5.994;2024-01-16T00:22:29;11.85;;;7.70;;
49223;SDS011;35050;51.316;5.994;2024-01-16T00:24:54;9.57;;;7.13;;
49223;SDS011;35050;51.316;5.994;2024-01-16T00:27:20;11.73;;;7.72;;
49223;SDS011;35050;51.316;5.994;2024-01-16T00:29:46;10.52;;;7.25;;
49223;SDS011;35050;51.316;5.994;2024-01-16T00:32:12;10.07;;;6.85;;
49223;SDS011;35050;51.316;5.994;2024-01-16T00:34:41;10.00;;;7.10;;
49223;SDS011;35050;51.316;5.994;2024-01-16T00:37:07;9.15;;;6.70;;
49223;SDS011;35050;51.316;5.994;2024-01-16T00:39:33;7.70;;;6.30;;
49223;SDS011;35050;51.316;5.994;2024-01-16T00:41:59;11.43;;;7.10;;
49223;SDS011;35050;51.316;5.994;2024-01-16T00:44:25;10.70;;;6.80;;
49223;SDS011;35050;51.316;5.994;2024-01-16T00:46:50;9.82;;;7.28;;
49223;SDS011;35050;51.316;5.994;2024-01-16T00:49:16;11.05;;;8.25;;
49223;SDS011;35050;51.316;5.994;2024-01-16T00:51:42;11.25;;;8.40;;
49223;SDS011;35050;51.316;5.994;2024-01-16T00:54:07;12.20;;;9.13;;
49223;SDS011;35050;51.316;5.994;2024-01-16T00:56:35;13.52;;;9.65;;
49223;SDS011;35050;51.316;5.994;2024-01-16T00:59:01;10.70;;;9.55;;
49223;SDS011;35050;51.316;5.994;2024-01-16T01:01:27;12.98;;;9.50;;
49223;SDS011;35050;51.316;5.994;2024-01-16T01:03:52;14.38;;;9.18;;
49223;SDS011;35050;51.316;5.994;2024-01-16T01:06:18;13.15;;;9.50;;
49223;SDS011;35050;51.316;5.994;2024-01-16T01:08:44;12.68;;;10.10;;
49223;SDS011;35050;51.316;5.994;2024-01-16T01:11:10;12.18;;;9.32;;
49223;SDS011;35050;51.316;5.994;2024-01-16T01:13:36;12.10;;;8.85;;
49223;SDS011;35050;51.316;5.994;2024-01-16T01:16:02;13.20;;;8.30;;
49223;SDS011;35050;51.316;5.994;2024-01-16T01:18:28;12.98;;;9.02;;
49223;SDS011;35050;51.316;5.994;2024-01-16T01:20:54;12.52;;;8.70;;
49223;SDS011;35050;51.316;5.994;2024-01-16T01:23:19;9.45;;;7.57;;
49223;SDS011;35050;51.316;5.994;2024-01-16T01:25:45;12.52;;;8.15;;
49223;SDS011;35050;51.316;5.994;2024-01-16T01:28:11;10.85;;;7.68;;
49223;SDS011;35050;51.316;5.994;2024-01-16T01:30:37;13.73;;;8.85;;
49223;SDS011;35050;51.316;5.994;2024-01-16T01:33:02;11.75;;;9.05;;
49223;SDS011;35050;51.316;5.994;2024-01-16T01:35:28;14.18;;;9.23;;
49223;SDS011;35050;51.316;5.994;2024-01-16T01:37:54;13.82;;;8.63;;
49223;SDS011;35050;51.316;5.994;2024-01-16T01:40:20;18.20;;;8.55;;
49223;SDS011;35050;51.316;5.994;2024-01-16T01:42:46;11.88;;;7.40;;
49223;SDS011;35050;51.316;5.994;2024-01-16T01:45:11;11.70;;;7.80;;
49223;SDS011;35050;51.316;5.994;2024-01-16T01:47:37;12.93;;;7.97;;
49223;SDS011;35050;51.316;5.994;2024-01-16T01:50:05;10.60;;;7.88;;
49223;SDS011;35050;51.316;5.994;2024-01-16T01:52:33;11.48;;;7.30;;
49223;SDS011;35050;51.316;5.994;2024-01-16T01:54:58;12.27;;;7.85;;
49223;SDS011;35050;51.316;5.994;2024-01-16T01:57:26;12.95;;;7.38;;
49223;SDS011;35050;51.316;5.994;2024-01-16T01:59:52;15.23;;;8.13;;
49223;SDS011;35050;51.316;5.994;2024-01-16T02:02:18;11.77;;;8.38;;
49223;SDS011;35050;51.316;5.994;2024-01-16T02:04:45;13.77;;;7.97;;
49223;SDS011;35050;51.316;5.994;2024-01-16T02:07:11;11.73;;;8.40;;
49223;SDS011;35050;51.316;5.994;2024-01-16T02:09:37;11.65;;;7.68;;
49223;SDS011;35050;51.316;5.994;2024-01-16T02:12:03;15.35;;;9.70;;
49223;SDS011;35050;51.316;5.994;2024-01-16T02:14:30;13.85;;;8.77;;
49223;SDS011;35050;51.316;5.994;2024-01-16T02:16:56;11.05;;;8.32;;
49223;SDS011;35050;51.316;5.994;2024-01-16T02:19:21;11.70;;;8.38;;
49223;SDS011;35050;51.316;5.994;2024-01-16T02:21:48;13.65;;;8.27;;
49223;SDS011;35050;51.316;5.994;2024-01-16T02:24:15;13.80;;;7.47;;
49223;SDS011;35050;51.316;5.994;2024-01-16T02:26:42;12.07;;;8.18;;
49223;SDS011;35050;51.316;5.994;2024-01-16T02:29:08;13.05;;;7.85;;
49223;SDS011;35050;51.316;5.994;2024-01-16T02:31:34;11.30;;;7.43;;
49223;SDS011;35050;51.316;5.994;2024-01-16T02:34:00;11.90;;;6.53;;
49223;SDS011;35050;51.316;5.994;2024-01-16T02:36:26;10.13;;;6.88;;
49223;SDS011;35050;51.316;5.994;2024-01-16T02:38:54;12.05;;;6.97;;
49223;SDS011;35050;51.316;5.994;2024-01-16T02:41:20;12.07;;;6.05;;
49223;SDS011;35050;51.316;5.994;2024-01-16T02:43:46;11.05;;;6.50;;
49223;SDS011;35050;51.316;5.994;2024-01-16T02:46:11;10.00;;;5.70;;
49223;SDS011;35050;51.316;5.994;2024-01-16T02:48:38;8.43;;;5.35;;
49223;SDS011;35050;51.316;5.994;2024-01-16T02:51:04;10.32;;;5.65;;
49223;SDS011;35050;51.316;5.994;2024-01-16T02:53:30;11.13;;;5.55;;
49223;SDS011;35050;51.316;5.994;2024-01-16T02:55:56;10.88;;;5.20;;
49223;SDS011;35050;51.316;5.994;2024-01-16T02:58:25;5.97;;;4.68;;
49223;SDS011;35050;51.316;5.994;2024-01-16T03:00:51;7.30;;;3.85;;
49223;SDS011;35050;51.316;5.994;2024-01-16T03:03:17;6.78;;;3.70;;
49223;SDS011;35050;51.316;5.994;2024-01-16T03:05:43;6.00;;;3.53;;
49223;SDS011;35050;51.316;5.994;2024-01-16T03:08:09;5.20;;;3.25;;
49223;SDS011;35050;51.316;5.994;2024-01-16T03:10:35;5.43;;;3.13;;
49223;SDS011;35050;51.316;5.994;2024-01-16T03:13:01;5.75;;;2.45;;
49223;SDS011;35050;51.316;5.994;2024-01-16T03:15:27;6.38;;;3.08;;
49223;SDS011;35050;51.316;5.994;2024-01-16T03:17:55;4.32;;;2.72;;
49223;SDS011;35050;51.316;5.994;2024-01-16T03:20:24;5.72;;;3.20;;
49223;SDS011;35050;51.316;5.994;2024-01-16T03:22:49;9.55;;;3.30;;
49223;SDS011;35050;51.316;5.994;2024-01-16T03:25:16;5.90;;;3.10;;
49223;SDS011;35050;51.316;5.994;2024-01-16T03:27:41;6.57;;;3.88;;
49223;SDS011;35050;51.316;5.994;2024-01-16T03:30:07;7.45;;;4.15;;
49223;SDS011;35050;51.316;5.994;2024-01-16T03:32:34;6.05;;;4.18;;
49223;SDS011;35050;51.316;5.994;2024-01-16T03:35:03;5.20;;;4.13;;
49223;SDS011;35050;51.316;5.994;2024-01-16T03:37:29;5.03;;;3.97;;
49223;SDS011;35050;51.316;5.994;2024-01-16T03:39:55;7.13;;;4.50;;
49223;SDS011;35050;51.316;5.994;2024-01-16T03:42:22;5.53;;;4.63;;
49223;SDS011;35050;51.316;5.994;2024-01-16T03:44:48;6.75;;;4.90;;
49223;SDS011;35050;51.316;5.994;2024-01-16T03:47:14;7.85;;;5.78;;
49223;SDS011;35050;51.316;5.994;2024-01-16T03:49:40;7.85;;;6.30;;
49223;SDS011;35050;51.316;5.994;2024-01-16T03:52:05;13.23;;;8.10;;
49223;SDS011;35050;51.316;5.994;2024-01-16T03:54:31;10.57;;;7.53;;
49223;SDS011;35050;51.316;5.994;2024-01-16T03:56:57;11.27;;;8.77;;
49223;SDS011;35050;51.316;5.994;2024-01-16T03:59:22;12.55;;;8.77;;
49223;SDS011;35050;51.316;5.994;2024-01-16T04:01:48;13.10;;;9.85;;
49223;SDS011;35050;51.316;5.994;2024-01-16T04:04:14;14.88;;;10.63;;
49223;SDS011;35050;51.316;5.994;2024-01-16T04:06:40;13.98;;;10.98;;
49223;SDS011;35050;51.316;5.994;2024-01-16T04:09:07;12.70;;;10.07;;
49223;SDS011;35050;51.316;5.994;2024-01-16T04:11:34;14.98;;;10.45;;
49223;SDS011;35050;51.316;5.994;2024-01-16T04:14:00;12.27;;;10.02;;
49223;SDS011;35050;51.316;5.994;2024-01-16T04:16:26;15.95;;;11.18;;
49223;SDS011;35050;51.316;5.994;2024-01-16T04:18:52;13.32;;;9.10;;
49223;SDS011;35050;51.316;5.994;2024-01-16T04:21:18;16.77;;;10.43;;
49223;SDS011;35050;51.316;5.994;2024-01-16T04:23:43;13.95;;;10.27;;
49223;SDS011;35050;51.316;5.994;2024-01-16T04:26:09;15.50;;;10.43;;
49223;SDS011;35050;51.316;5.994;2024-01-16T04:28:35;15.02;;;9.93;;
49223;SDS011;35050;51.316;5.994;2024-01-16T04:31:02;13.48;;;9.15;;
49223;SDS011;35050;51.316;5.994;2024-01-16T04:33:28;12.55;;;8.18;;
49223;SDS011;35050;51.316;5.994;2024-01-16T04:35:55;15.18;;;8.70;;
49223;SDS011;35050;51.316;5.994;2024-01-16T04:38:21;14.43;;;8.15;;
49223;SDS011;35050;51.316;5.994;2024-01-16T04:40:46;10.07;;;7.38;;
49223;SDS011;35050;51.316;5.994;2024-01-16T04:43:12;13.93;;;8.23;;
49223;SDS011;35050;51.316;5.994;2024-01-16T04:45:37;15.38;;;8.63;;
49223;SDS011;35050;51.316;5.994;2024-01-16T04:48:03;16.15;;;7.78;;
49223;SDS011;35050;51.316;5.994;2024-01-16T04:50:29;13.02;;;7.57;;
49223;SDS011;35050;51.316;5.994;2024-01-16T04:53:00;12.95;;;6.22;;
49223;SDS011;35050;51.316;5.994;2024-01-16T04:55:26;15.38;;;6.82;;
49223;SDS011;35050;51.316;5.994;2024-01-16T04:57:55;12.20;;;6.07;;
49223;SDS011;35050;51.316;5.994;2024-01-16T05:00:21;11.90;;;6.00;;
49223;SDS011;35050;51.316;5.994;2024-01-16T05:02:48;11.55;;;5.32;;
49223;SDS011;35050;51.316;5.994;2024-01-16T05:05:14;10.38;;;5.60;;
49223;SDS011;35050;51.316;5.994;2024-01-16T05:07:40;14.02;;;5.97;;
49223;SDS011;35050;51.316;5.994;2024-01-16T05:10:06;13.75;;;5.30;;
49223;SDS011;35050;51.316;5.994;2024-01-16T05:12:34;10.82;;;5.63;;
49223;SDS011;35050;51.316;5.994;2024-01-16T05:14:59;14.57;;;5.10;;
49223;SDS011;35050;51.316;5.994;2024-01-16T05:17:25;11.98;;;5.28;;
49223;SDS011;35050;51.316;5.994;2024-01-16T05:19:51;10.95;;;4.20;;
49223;SDS011;35050;51.316;5.994;2024-01-16T05:22:16;10.75;;;4.70;;
49223;SDS011;35050;51.316;5.994;2024-01-16T05:24:42;7.43;;;4.20;;
49223;SDS011;35050;51.316;5.994;2024-01-16T05:27:08;10.13;;;4.63;;
49223;SDS011;35050;51.316;5.994;2024-01-16T05:29:34;8.60;;;4.00;;
49223;SDS011;35050;51.316;5.994;2024-01-16T05:32:02;16.80;;;5.05;;
49223;SDS011;35050;51.316;5.994;2024-01-16T05:34:28;11.05;;;4.28;;
49223;SDS011;35050;51.316;5.994;2024-01-16T05:36:54;8.35;;;4.10;;
49223;SDS011;35050;51.316;5.994;2024-01-16T05:39:20;9.90;;;3.97;;
49223;SDS011;35050;51.316;5.994;2024-01-16T05:41:46;9.93;;;3.88;;
49223;SDS011;35050;51.316;5.994;2024-01-16T05:44:11;15.18;;;4.05;;
49223;SDS011;35050;51.316;5.994;2024-01-16T05:46:37;8.27;;;4.20;;
49223;SDS011;35050;51.316;5.994;2024-01-16T05:49:03;11.20;;;3.88;;
49223;SDS011;35050;51.316;5.994;2024-01-16T05:51:28;11.02;;;3.80;;
49223;SDS011;35050;51.316;5.994;2024-01-16T05:53:54;12.65;;;4.25;;
49223;SDS011;35050;51.316;5.994;2024-01-16T05:56:20;6.78;;;3.45;;
49223;SDS011;35050;51.316;5.994;2024-01-16T05:58:46;11.00;;;4.18;;
49223;SDS011;35050;51.316;5.994;2024-01-16T06:01:12;7.95;;;4.10;;
49223;SDS011;35050;51.316;5.994;2024-01-16T06:03:38;7.28;;;3.70;;
49223;SDS011;35050;51.316;5.994;2024-01-16T06:06:05;8.48;;;3.33;;
49223;SDS011;35050;51.316;5.994;2024-01-16T06:08:30;7.30;;;3.60;;
49223;SDS011;35050;51.316;5.994;2024-01-16T06:10:56;9.23;;;3.50;;
49223;SDS011;35050;51.316;5.994;2024-01-16T06:13:22;11.10;;;3.88;;
49223;SDS011;35050;51.316;5.994;2024-01-16T06:15:47;11.32;;;4.13;;
49223;SDS011;35050;51.316;5.994;2024-01-16T06:18:13;8.20;;;3.92;;
49223;SDS011;35050;51.316;5.994;2024-01-16T06:20:39;10.27;;;3.55;;
49223;SDS011;35050;51.316;5.994;2024-01-16T06:23:04;10.02;;;3.90;;
49223;SDS011;35050;51.316;5.994;2024-01-16T06:25:30;8.70;;;4.15;;
49223;SDS011;35050;51.316;5.994;2024-01-16T06:27:56;10.43;;;3.88;;
49223;SDS011;35050;51.316;5.994;2024-01-16T06:30:22;7.35;;;3.50;;
49223;SDS011;35050;51.316;5.994;2024-01-16T06:32:48;6.68;;;3.55;;
49223;SDS011;35050;51.316;5.994;2024-01-16T06:35:15;5.90;;;3.30;;
49223;SDS011;35050;51.316;5.994;2024-01-16T06:37:41;9.93;;;3.60;;
49223;SDS011;35050;51.316;5.994;2024-01-16T06:40:06;10.43;;;3.30;;
49223;SDS011;35050;51.316;5.994;2024-01-16T06:42:32;13.88;;;4.05;;
49223;SDS011;35050;51.316;5.994;2024-01-16T06:44:58;10.27;;;3.60;;
49223;SDS011;35050;51.316;5.994;2024-01-16T06:47:24;6.65;;;3.63;;
49223;SDS011;35050;51.316;5.994;2024-01-16T06:49:49;10.45;;;3.67;;
49223;SDS011;35050;51.316;5.994;2024-01-16T06:52:15;8.93;;;3.60;;
49223;SDS011;35050;51.316;5.994;2024-01-16T06:54:41;10.45;;;3.88;;
49223;SDS011;35050;51.316;5.994;2024-01-16T06:57:06;8.02;;;3.45;;
49223;SDS011;35050;51.316;5.994;2024-01-16T06:59:32;9.38;;;4.20;;
49223;SDS011;35050;51.316;5.994;2024-01-16T07:01:57;11.65;;;3.75;;
49223;SDS011;35050;51.316;5.994;2024-01-16T07:04:23;9.77;;;4.35;;
49223;SDS011;35050;51.316;5.994;2024-01-16T07:06:49;8.55;;;4.28;;
49223;SDS011;35050;51.316;5.994;2024-01-16T07:09:14;11.65;;;4.13;;
49223;SDS011;35050;51.316;5.994;2024-01-16T07:11:41;11.63;;;4.00;;
49223;SDS011;35050;51.316;5.994;2024-01-16T07:14:08;8.43;;;4.00;;
49223;SDS011;35050;51.316;5.994;2024-01-16T07:16:35;8.05;;;4.68;;
49223;SDS011;35050;51.316;5.994;2024-01-16T07:19:01;9.18;;;3.67;;
49223;SDS011;35050;51.316;5.994;2024-01-16T07:21:27;10.73;;;4.10;;
49223;SDS011;35050;51.316;5.994;2024-01-16T07:23:53;10.48;;;3.92;;
49223;SDS011;35050;51.316;5.994;2024-01-16T07:26:19;12.80;;;4.93;;
49223;SDS011;35050;51.316;5.994;2024-01-16T07:28:45;9.05;;;3.97;;
49223;SDS011;35050;51.316;5.994;2024-01-16T07:31:13;8.05;;;4.00;;
49223;SDS011;35050;51.316;5.994;2024-01-16T07:33:39;8.10;;;3.90;;
49223;SDS011;35050;51.316;5.994;2024-01-16T07:36:05;10.23;;;3.58;;
49223;SDS011;35050;51.316;5.994;2024-01-16T07:38:33;8.63;;;3.63;;
49223;SDS011;35050;51.316;5.994;2024-01-16T07:40:58;12.50;;;3.72;;
49223;SDS011;35050;51.316;5.994;2024-01-16T07:43:24;13.23;;;5.20;;
49223;SDS011;35050;51.316;5.994;2024-01-16T07:45:50;16.92;;;4.80;;
49223;SDS011;35050;51.316;5.994;2024-01-16T07:48:16;14.77;;;3.92;;
49223;SDS011;35050;51.316;5.994;2024-01-16T07:50:41;16.75;;;4.53;;
49223;SDS011;35050;51.316;5.994;2024-01-16T07:53:07;9.55;;;3.78;;
49223;SDS011;35050;51.316;5.994;2024-01-16T07:55:33;10.93;;;4.18;;
49223;SDS011;35050;51.316;5.994;2024-01-16T07:57:58;10.57;;;4.28;;
49223;SDS011;35050;51.316;5.994;2024-01-16T08:00:24;10.75;;;3.92;;
49223;SDS011;35050;51.316;5.994;2024-01-16T08:02:49;10.63;;;4.18;;
49223;SDS011;35050;51.316;5.994;2024-01-16T08:05:15;12.18;;;4.38;;
49223;SDS011;35050;51.316;5.994;2024-01-16T08:07:44;10.75;;;4.57;;
49223;SDS011;35050;51.316;5.994;2024-01-16T08:10:09;8.80;;;3.72;;
49223;SDS011;35050;51.316;5.994;2024-01-16T08:12:36;9.45;;;4.60;;
49223;SDS011;35050;51.316;5.994;2024-01-16T08:15:02;9.30;;;3.92;;
49223;SDS011;35050;51.316;5.994;2024-01-16T08:17:29;8.30;;;4.63;;
49223;SDS011;35050;51.316;5.994;2024-01-16T08:19:54;9.70;;;4.47;;
49223;SDS011;35050;51.316;5.994;2024-01-16T08:22:20;10.80;;;4.25;;
49223;SDS011;35050;51.316;5.994;2024-01-16T08:24:45;9.50;;;4.03;;
49223;SDS011;35050;51.316;5.994;2024-01-16T08:27:11;11.52;;;4.43;;
49223;SDS011;35050;51.316;5.994;2024-01-16T08:29:37;8.23;;;4.05;;
49223;SDS011;35050;51.316;5.994;2024-01-16T08:32:03;12.27;;;4.82;;
49223;SDS011;35050;51.316;5.994;2024-01-16T08:34:29;10.70;;;4.90;;
49223;SDS011;35050;51.316;5.994;2024-01-16T08:36:54;13.10;;;5.28;;
49223;SDS011;35050;51.316;5.994;2024-01-16T08:39:22;13.38;;;4.80;;
49223;SDS011;35050;51.316;5.994;2024-01-16T08:41:49;13.13;;;4.90;;
49223;SDS011;35050;51.316;5.994;2024-01-16T08:44:15;11.48;;;4.80;;
49223;SDS011;35050;51.316;5.994;2024-01-16T08:46:40;11.05;;;4.72;;
49223;SDS011;35050;51.316;5.994;2024-01-16T08:49:06;10.98;;;4.72;;
49223;SDS011;35050;51.316;5.994;2024-01-16T08:51:32;14.27;;;5.38;;
49223;SDS011;35050;51.316;5.994;2024-01-16T08:53:57;12.02;;;5.60;;
49223;SDS011;35050;51.316;5.994;2024-01-16T08:56:23;12.75;;;4.80;;
49223;SDS011;35050;51.316;5.994;2024-01-16T08:58:48;10.60;;;4.88;;
49223;SDS011;35050;51.316;5.994;2024-01-16T09:01:14;12.20;;;5.35;;
49223;SDS011;35050;51.316;5.994;2024-01-16T09:03:40;13.90;;;5.28;;
49223;SDS011;35050;51.316;5.994;2024-01-16T09:06:08;12.73;;;5.00;;
49223;SDS011;35050;51.316;5.994;2024-01-16T09:08:35;12.05;;;5.13;;
49223;SDS011;35050;51.316;5.994;2024-01-16T09:11:01;11.75;;;4.80;;
49223;SDS011;35050;51.316;5.994;2024-01-16T09:13:26;10.80;;;4.60;;
49223;SDS011;35050;51.316;5.994;2024-01-16T09:15:52;9.75;;;4.90;;
49223;SDS011;35050;51.316;5.994;2024-01-16T09:18:18;11.02;;;4.88;;
49223;SDS011;35050;51.316;5.994;2024-01-16T09:20:43;11.68;;;5.03;;
49223;SDS011;35050;51.316;5.994;2024-01-16T09:23:09;11.90;;;5.20;;
49223;SDS011;35050;51.316;5.994;2024-01-16T09:25:35;11.57;;;5.00;;
49223;SDS011;35050;51.316;5.994;2024-01-16T09:28:01;11.95;;;5.13;;
49223;SDS011;35050;51.316;5.994;2024-01-16T09:30:27;11.70;;;5.07;;
49223;SDS011;35050;51.316;5.994;2024-01-16T09:32:53;13.25;;;5.00;;
49223;SDS011;35050;51.316;5.994;2024-01-16T09:35:18;14.13;;;5.43;;
49223;SDS011;35050;51.316;5.994;2024-01-16T09:37:44;17.13;;;5.85;;
49223;SDS011;35050;51.316;5.994;2024-01-16T09:40:10;12.88;;;6.03;;
49223;SDS011;35050;51.316;5.994;2024-01-16T09:42:36;12.05;;;4.88;;
49223;SDS011;35050;51.316;5.994;2024-01-16T09:45:02;10.50;;;5.78;;
49223;SDS011;35050;51.316;5.994;2024-01-16T09:47:29;12.27;;;4.97;;
49223;SDS011;35050;51.316;5.994;2024-01-16T09:49:57;13.25;;;5.20;;
49223;SDS011;35050;51.316;5.994;2024-01-16T09:52:25;13.82;;;5.43;;
49223;SDS011;35050;51.316;5.994;2024-01-16T09:54:51;9.38;;;4.97;;
49223;SDS011;35050;51.316;5.994;2024-01-16T09:57:18;13.00;;;5.07;;
49223;SDS011;35050;51.316;5.994;2024-01-16T09:59:48;12.32;;;6.00;;
49223;SDS011;35050;51.316;5.994;2024-01-16T10:02:13;13.48;;;5.68;;
49223;SDS011;35050;51.316;5.994;2024-01-16T10:04:40;12.48;;;5.70;;
49223;SDS011;35050;51.316;5.994;2024-01-16T10:07:06;12.52;;;5.57;;
49223;SDS011;35050;51.316;5.994;2024-01-16T10:09:34;15.07;;;5.63;;
49223;SDS011;35050;51.316;5.994;2024-01-16T10:12:00;12.32;;;4.63;;
49223;SDS011;35050;51.316;5.994;2024-01-16T10:14:27;11.02;;;5.00;;
49223;SDS011;35050;51.316;5.994;2024-01-16T10:16:54;13.30;;;5.32;;
49223;SDS011;35050;51.316;5.994;2024-01-16T10:19:22;11.25;;;5.35;;
49223;SDS011;35050;51.316;5.994;2024-01-16T10:21:48;17.27;;;6.07;;
49223;SDS011;35050;51.316;5.994;2024-01-16T10:24:15;10.27;;;4.78;;
49223;SDS011;35050;51.316;5.994;2024-01-16T10:26:40;16.13;;;5.47;;
49223;SDS011;35050;51.316;5.994;2024-01-16T10:29:06;10.40;;;5.15;;
49223;SDS011;35050;51.316;5.994;2024-01-16T10:31:31;13.85;;;5.18;;
49223;SDS011;35050;51.316;5.994;2024-01-16T10:33:57;10.00;;;4.60;;
49223;SDS011;35050;51.316;5.994;2024-01-16T10:36:23;14.38;;;5.45;;
49223;SDS011;35050;51.316;5.994;2024-01-16T10:38:50;12.40;;;4.93;;
49223;SDS011;35050;51.316;5.994;2024-01-16T10:41:22;10.63;;;5.50;;
49223;SDS011;35050;51.316;5.994;2024-01-16T10:44:03;9.43;;;4.85;;
49223;SDS011;35050;51.316;5.994;2024-01-16T10:46:31;11.38;;;5.00;;
49223;SDS011;35050;51.316;5.994;2024-01-16T10:49:01;11.05;;;5.22;;
49223;SDS011;35050;51.316;5.994;2024-01-16T10:51:28;10.52;;;4.22;;
49223;SDS011;35050;51.316;5.994;2024-01-16T10:53:58;7.97;;;4.47;;
49223;SDS011;35050;51.316;5.994;2024-01-16T10:56:33;11.32;;;4.53;;
49223;SDS011;35050;51.316;5.994;2024-01-16T10:59:11;12.27;;;5.25;;
49223;SDS011;35050;51.316;5.994;2024-01-16T11:01:48;12.52;;;5.32;;
49223;SDS011;35050;51.316;5.994;2024-01-16T11:04:20;11.52;;;5.43;;
49223;SDS011;35050;51.316;5.994;2024-01-16T11:06:46;9.35;;;4.68;;
49223;SDS011;35050;51.316;5.994;2024-01-16T11:09:13;11.60;;;4.75;;
49223;SDS011;35050;51.316;5.994;2024-01-16T11:11:43;8.80;;;4.32;;
49223;SDS011;35050;51.316;5.994;2024-01-16T11:14:10;9.10;;;4.75;;
49223;SDS011;35050;51.316;5.994;2024-01-16T11:16:39;10.80;;;4.88;;
49223;SDS011;35050;51.316;5.994;2024-01-16T11:19:10;10.00;;;4.80;;
49223;SDS011;35050;51.316;5.994;2024-01-16T11:21:36;12.82;;;5.18;;
49223;SDS011;35050;51.316;5.994;2024-01-16T11:24:02;9.90;;;4.85;;
49223;SDS011;35050;51.316;5.994;2024-01-16T11:26:29;10.23;;;4.90;;
49223;SDS011;35050;51.316;5.994;2024-01-16T11:29:01;11.60;;;4.78;;
49223;SDS011;35050;51.316;5.994;2024-01-16T11:31:52;10.57;;;4.75;;
49223;SDS011;35050;51.316;5.994;2024-01-16T11:37:07;11.57;;;5.13;;
49223;SDS011;35050;51.316;5.994;2024-01-16T11:39:33;10.70;;;4.43;;
49223;SDS011;35050;51.316;5.994;2024-01-16T11:41:59;7.93;;;4.40;;
49223;SDS011;35050;51.316;5.994;2024-01-16T11:47:15;10.73;;;4.32;;
49223;SDS011;35050;51.316;5.994;2024-01-16T11:49:42;11.88;;;5.40;;
49223;SDS011;35050;51.316;5.994;2024-01-16T11:52:08;9.88;;;4.60;;
49223;SDS011;35050;51.316;5.994;2024-01-16T11:54:36;10.38;;;4.82;;
49223;SDS011;35050;51.316;5.994;2024-01-16T12:00:04;9.90;;;5.00;;
49223;SDS011;35050;51.316;5.994;2024-01-16T12:05:14;10.57;;;5.32;;
49223;SDS011;35050;51.316;5.994;2024-01-16T12:07:45;10.90;;;5.22;;
49223;SDS011;35050;51.316;5.994;2024-01-16T12:10:14;9.90;;;4.35;;
49223;SDS011;35050;51.316;5.994;2024-01-16T12:12:50;9.35;;;4.78;;
49223;SDS011;35050;51.316;5.994;2024-01-16T12:15:20;13.73;;;6.20;;
49223;SDS011;35050;51.316;5.994;2024-01-16T12:20:29;13.27;;;4.68;;
49223;SDS011;35050;51.316;5.994;2024-01-16T12:22:59;11.73;;;5.38;;
49223;SDS011;35050;51.316;5.994;2024-01-16T12:30:32;12.77;;;5.60;;
49223;SDS011;35050;51.316;5.994;2024-01-16T12:33:20;11.32;;;4.75;;
49223;SDS011;35050;51.316;5.994;2024-01-16T12:35:47;10.57;;;4.50;;
49223;SDS011;35050;51.316;5.994;2024-01-16T12:38:13;12.77;;;5.43;;
49223;SDS011;35050;51.316;5.994;2024-01-16T12:40:50;11.35;;;5.00;;
49223;SDS011;35050;51.316;5.994;2024-01-16T12:43:17;9.52;;;4.45;;
49223;SDS011;35050;51.316;5.994;2024-01-16T12:45:46;11.23;;;4.60;;
49223;SDS011;35050;51.316;5.994;2024-01-16T12:48:27;9.90;;;4.20;;
49223;SDS011;35050;51.316;5.994;2024-01-16T12:51:02;11.02;;;4.90;;
49223;SDS011;35050;51.316;5.994;2024-01-16T12:53:28;11.13;;;5.18;;
49223;SDS011;35050;51.316;5.994;2024-01-16T12:55:58;9.85;;;4.30;;
49223;SDS011;35050;51.316;5.994;2024-01-16T12:58:24;10.52;;;4.43;;
49223;SDS011;35050;51.316;5.994;2024-01-16T13:00:53;12.07;;;4.55;;
49223;SDS011;35050;51.316;5.994;2024-01-16T13:03:21;17.35;;;5.10;;
49223;SDS011;35050;51.316;5.994;2024-01-16T13:05:58;10.40;;;5.10;;
49223;SDS011;35050;51.316;5.994;2024-01-16T13:08:25;17.63;;;4.72;;
49223;SDS011;35050;51.316;5.994;2024-01-16T13:11:04;8.02;;;4.63;;
49223;SDS011;35050;51.316;5.994;2024-01-16T13:13:31;8.82;;;4.35;;
49223;SDS011;35050;51.316;5.994;2024-01-16T13:15:57;11.85;;;4.57;;
49223;SDS011;35050;51.316;5.994;2024-01-16T13:18:24;7.55;;;4.75;;
49223;SDS011;35050;51.316;5.994;2024-01-16T13:20:51;9.57;;;4.55;;
49223;SDS011;35050;51.316;5.994;2024-01-16T13:23:18;8.88;;;4.05;;
49223;SDS011;35050;51.316;5.994;2024-01-16T13:25:45;7.13;;;4.00;;
49223;SDS011;35050;51.316;5.994;2024-01-16T13:28:12;11.80;;;4.78;;
49223;SDS011;35050;51.316;5.994;2024-01-16T13:30:39;10.02;;;4.50;;
49223;SDS011;35050;51.316;5.994;2024-01-16T13:33:08;8.70;;;4.30;;
49223;SDS011;35050;51.316;5.994;2024-01-16T13:35:35;7.22;;;4.10;;
49223;SDS011;35050;51.316;5.994;2024-01-16T13:38:04;10.18;;;4.70;;
49223;SDS011;35050;51.316;5.994;2024-01-16T13:40:31;9.50;;;4.15;;
49223;SDS011;35050;51.316;5.994;2024-01-16T13:42:57;8.18;;;4.13;;
49223;SDS011;35050;51.316;5.994;2024-01-16T13:45:22;9.50;;;4.07;;
49223;SDS011;35050;51.316;5.994;2024-01-16T13:47:48;9.93;;;4.22;;
49223;SDS011;35050;51.316;5.994;2024-01-16T13:50:14;10.50;;;4.07;;
49223;SDS011;35050;51.316;5.994;2024-01-16T13:52:40;7.18;;;4.07;;
49223;SDS011;35050;51.316;5.994;2024-01-16T13:55:06;9.43;;;3.90;;
49223;SDS011;35050;51.316;5.994;2024-01-16T13:57:32;14.05;;;4.53;;
49223;SDS011;35050;51.316;5.994;2024-01-16T14:00:05;8.15;;;4.00;;
49223;SDS011;35050;51.316;5.994;2024-01-16T14:02:32;12.20;;;4.55;;
49223;SDS011;35050;51.316;5.994;2024-01-16T14:05:03;9.13;;;4.07;;
49223;SDS011;35050;51.316;5.994;2024-01-16T14:07:30;8.98;;;4.40;;
49223;SDS011;35050;51.316;5.994;2024-01-16T14:09:56;7.53;;;3.70;;
49223;SDS011;35050;51.316;5.994;2024-01-16T14:12:23;10.52;;;4.57;;
49223;SDS011;35050;51.316;5.994;2024-01-16T14:14:49;7.40;;;3.67;;
49223;SDS011;35050;51.316;5.994;2024-01-16T14:17:16;8.68;;;4.05;;
49223;SDS011;35050;51.316;5.994;2024-01-16T14:19:41;8.73;;;4.32;;
49223;SDS011;35050;51.316;5.994;2024-01-16T14:22:07;9.88;;;4.57;;
49223;SDS011;35050;51.316;5.994;2024-01-16T14:24:33;12.32;;;4.30;;
49223;SDS011;35050;51.316;5.994;2024-01-16T14:26:59;9.18;;;4.72;;
49223;SDS011;35050;51.316;5.994;2024-01-16T14:29:25;10.95;;;4.63;;
49223;SDS011;35050;51.316;5.994;2024-01-16T14:31:51;9.27;;;3.75;;
49223;SDS011;35050;51.316;5.994;2024-01-16T14:34:17;8.32;;;4.22;;
49223;SDS011;35050;51.316;5.994;2024-01-16T14:36:44;7.38;;;3.72;;
49223;SDS011;35050;51.316;5.994;2024-01-16T14:39:10;9.27;;;4.07;;
49223;SDS011;35050;51.316;5.994;2024-01-16T14:41:41;9.02;;;4.65;;
49223;SDS011;35050;51.316;5.994;2024-01-16T14:44:08;6.47;;;3.45;;
49223;SDS011;35050;51.316;5.994;2024-01-16T14:46:35;12.10;;;4.10;;
49223;SDS011;35050;51.316;5.994;2024-01-16T14:49:01;7.20;;;3.65;;
49223;SDS011;35050;51.316;5.994;2024-01-16T14:51:27;11.40;;;4.95;;
49223;SDS011;35050;51.316;5.994;2024-01-16T14:53:53;12.40;;;4.07;;